Time;durP1;ratioP1;P1;durP2;ratioP2;P2;SDS_P1;SDS_P2;PMS_P1;PMS_P2;Temp;Humidity;BMP_temperature;BMP_pressure;BME280_temperature;BME280_humidity;BME280_pressure;Samples;Min_cycle;Max_cycle;Signal;HPM_P1;HPM_P2
2023/12/21 00:01:36;;;;;;;1.10;0.47;;;5.00;71.80;;;;;;4959167;28;20016;-85
2023/12/21 00:04:02;;;;;;;0.98;0.43;;;5.00;71.70;;;;;;4941789;29;20083;-78
2023/12/21 00:06:29;;;;;;;0.75;0.40;;;5.00;71.80;;;;;;4941061;29;20030;-85
2023/12/21 00:08:54;;;;;;;0.75;0.25;;;5.00;72.20;;;;;;4926115;29;20051;-83
2023/12/21 00:11:22;;;;;;;1.48;0.40;;;5.00;72.10;;;;;;4968653;28;20027;-74
2023/12/21 00:13:47;;;;;;;0.63;0.30;;;5.00;72.40;;;;;;4957584;29;20043;-75
2023/12/21 00:16:13;;;;;;;1.52;0.30;;;5.10;72.40;;;;;;4957874;29;20020;-78
2023/12/21 00:18:39;;;;;;;1.08;0.30;;;5.10;72.10;;;;;;4944244;29;20416;-81
2023/12/21 00:21:05;;;;;;;0.47;0.40;;;5.20;72.00;;;;;;4957765;28;20031;-84
2023/12/21 00:23:31;;;;;;;0.55;0.20;;;5.20;72.10;;;;;;4940014;29;20027;-80
2023/12/21 00:25:56;;;;;;;1.10;0.28;;;5.20;72.20;;;;;;4940626;29;20039;-78
2023/12/21 00:28:22;;;;;;;0.15;0.05;;;5.20;72.20;;;;;;4940438;29;20037;-80
2023/12/21 00:30:49;;;;;;;1.35;0.38;;;5.10;72.80;;;;;;4957525;29;20520;-75
2023/12/21 00:33:15;;;;;;;0.85;0.30;;;5.10;73.30;;;;;;4957721;28;20054;-82
2023/12/21 00:35:40;;;;;;;1.08;0.30;;;5.10;73.50;;;;;;4940227;29;20054;-81
2023/12/21 00:38:06;;;;;;;2.53;0.20;;;5.10;73.50;;;;;;4940010;29;20520;-83
2023/12/21 00:40:31;;;;;;;0.10;0.10;;;5.10;73.60;;;;;;4940422;29;20125;-75
2023/12/21 00:42:57;;;;;;;1.38;0.30;;;5.20;73.90;;;;;;4957248;29;20028;-78
2023/12/21 00:45:23;;;;;;;1.38;0.35;;;5.20;74.60;;;;;;4957129;29;20027;-82
2023/12/21 00:47:48;;;;;;;0.30;0.10;;;5.20;75.20;;;;;;4939894;29;20134;-81
2023/12/21 00:50:14;;;;;;;0.75;0.10;;;5.20;75.80;;;;;;4956956;29;20027;-75
2023/12/21 00:52:40;;;;;;;0.15;0.13;;;5.20;75.70;;;;;;4956823;29;20027;-75
2023/12/21 00:55:06;;;;;;;0.68;0.10;;;5.10;76.00;;;;;;4957099;29;20024;-78
2023/12/21 00:57:32;;;;;;;0.38;0.20;;;5.10;76.20;;;;;;4956848;29;20035;-80
2023/12/21 00:59:57;;;;;;;0.80;0.20;;;5.10;76.40;;;;;;4940040;29;20030;-82
2023/12/21 01:02:23;;;;;;;0.77;0.30;;;5.10;76.70;;;;;;4939986;29;20023;-77
2023/12/21 01:04:48;;;;;;;0.65;0.28;;;5.10;77.20;;;;;;4956880;28;20391;-80
2023/12/21 01:07:14;;;;;;;0.50;0.25;;;5.20;77.80;;;;;;4939769;29;20019;-77
2023/12/21 01:09:39;;;;;;;0.50;0.35;;;5.10;78.50;;;;;;4956725;29;20019;-75
2023/12/21 01:12:06;;;;;;;0.20;0.10;;;5.10;78.80;;;;;;4956645;29;20129;-77
2023/12/21 01:14:32;;;;;;;0.80;0.20;;;5.00;79.10;;;;;;4956527;29;20043;-74
2023/12/21 01:16:57;;;;;;;0.40;0.20;;;5.00;78.90;;;;;;4956424;29;20039;-74
2023/12/21 01:19:23;;;;;;;0.52;0.25;;;5.00;79.40;;;;;;4956359;29;20031;-82
2023/12/21 01:21:49;;;;;;;0.70;0.20;;;5.00;79.70;;;;;;4939631;29;20031;-81
2023/12/21 01:24:14;;;;;;;2.42;0.38;;;5.00;79.80;;;;;;4956527;28;20043;-82
2023/12/21 01:26:40;;;;;;;0.50;0.10;;;5.00;80.20;;;;;;4939122;29;20024;-82
2023/12/21 01:29:05;;;;;;;1.08;0.17;;;4.90;80.40;;;;;;4939026;29;20059;-79
2023/12/21 01:31:31;;;;;;;0.43;0.10;;;4.90;80.60;;;;;;4956395;29;20078;-81
2023/12/21 01:33:57;;;;;;;1.05;0.20;;;4.90;80.10;;;;;;4956316;28;20544;-76
2023/12/21 01:36:22;;;;;;;0.15;0.10;;;4.90;80.10;;;;;;4956385;28;20041;-81
2023/12/21 01:38:49;;;;;;;0.22;0.10;;;4.90;80.30;;;;;;4955994;28;20488;-79
2023/12/21 01:41:14;;;;;;;1.35;0.17;;;4.90;79.80;;;;;;4938762;29;20431;-74
2023/12/21 01:43:40;;;;;;;0.22;0.10;;;4.90;80.00;;;;;;4956119;28;20027;-79
2023/12/21 01:46:05;;;;;;;0.10;0.10;;;4.90;79.80;;;;;;4966117;28;20061;-80
2023/12/21 01:48:31;;;;;;;1.48;0.30;;;4.90;79.80;;;;;;4975126;28;20050;-80
2023/12/21 01:50:58;;;;;;;1.00;0.10;;;4.90;80.10;;;;;;4975196;28;20081;-75
2023/12/21 01:53:25;;;;;;;1.15;0.30;;;4.90;79.80;;;;;;4975323;28;20101;-76
2023/12/21 01:55:50;;;;;;;1.08;0.40;;;4.90;80.10;;;;;;4975699;28;20023;-75
2023/12/21 01:58:17;;;;;;;0.55;0.38;;;4.80;80.30;;;;;;4975586;28;20085;-76
2023/12/21 02:00:43;;;;;;;0.17;0.15;;;4.80;80.30;;;;;;4975636;28;20102;-75
2023/12/21 02:03:08;;;;;;;0.70;0.30;;;4.90;80.70;;;;;;4974825;28;20055;-76
2023/12/21 02:05:34;;;;;;;1.10;0.47;;;4.80;80.30;;;;;;4957623;28;20112;-75
2023/12/21 02:08:00;;;;;;;0.73;0.30;;;4.80;80.30;;;;;;4957524;28;20114;-76
2023/12/21 02:10:25;;;;;;;0.28;0.20;;;4.90;80.40;;;;;;4974879;28;20027;-75
2023/12/21 02:12:51;;;;;;;0.40;0.15;;;4.90;80.00;;;;;;4957363;28;20395;-77
2023/12/21 02:15:16;;;;;;;0.10;0.10;;;5.00;79.20;;;;;;4957429;28;20118;-80
2023/12/21 02:17:46;;;;;;;0.88;0.20;;;5.00;79.30;;;;;;4974657;28;20038;-77
2023/12/21 02:20:12;;;;;;;0.32;0.20;;;5.10;79.00;;;;;;4956993;28;20023;-75
2023/12/21 02:22:41;;;;;;;0.57;0.13;;;5.10;78.80;;;;;;4957674;28;20190;-79
2023/12/21 02:25:07;;;;;;;0.30;0.10;;;5.10;78.70;;;;;;4957514;28;20030;-77
2023/12/21 02:27:33;;;;;;;1.27;0.30;;;5.10;78.60;;;;;;4957179;28;20543;-75
2023/12/21 02:29:59;;;;;;;0.60;0.20;;;5.20;78.10;;;;;;4957285;28;20118;-76
2023/12/21 02:32:25;;;;;;;0.13;0.00;;;5.20;78.30;;;;;;4974527;28;20054;-76
2023/12/21 02:34:50;;;;;;;0.08;0.08;;;5.20;78.20;;;;;;4957225;28;20037;-75
2023/12/21 02:37:16;;;;;;;0.20;0.10;;;5.30;77.60;;;;;;4956705;28;20027;-75
2023/12/21 02:39:42;;;;;;;0.30;0.10;;;5.30;77.80;;;;;;4957399;28;20436;-78
2023/12/21 02:42:07;;;;;;;0.00;0.00;;;5.20;77.70;;;;;;4974427;28;20081;-78
2023/12/21 02:44:33;;;;;;;0.10;0.10;;;5.30;78.70;;;;;;4957268;28;20031;-75
2023/12/21 02:46:59;;;;;;;0.10;0.00;;;5.20;78.00;;;;;;4973859;28;20089;-75
2023/12/21 02:49:24;;;;;;;0.90;0.20;;;5.20;78.00;;;;;;4974258;28;20460;-75
2023/12/21 02:51:50;;;;;;;0.28;0.10;;;5.20;78.30;;;;;;4974246;28;20086;-75
2023/12/21 02:54:15;;;;;;;0.10;0.08;;;5.20;78.50;;;;;;4974234;28;20373;-75
2023/12/21 02:56:41;;;;;;;0.00;0.00;;;5.20;78.20;;;;;;4940829;28;20030;-75
2023/12/21 02:59:06;;;;;;;0.20;0.20;;;5.20;78.40;;;;;;4956852;28;20026;-75
2023/12/21 03:01:33;;;;;;;0.10;0.10;;;5.20;78.20;;;;;;4974250;28;20423;-75
2023/12/21 03:04:00;;;;;;;0.15;0.15;;;5.20;78.30;;;;;;4957136;28;20035;-75
2023/12/21 03:06:26;;;;;;;0.30;0.20;;;5.20;78.40;;;;;;4957163;28;20025;-75
2023/12/21 03:08:52;;;;;;;0.22;0.10;;;5.20;78.50;;;;;;4956411;28;20023;-74
2023/12/21 03:11:18;;;;;;;0.15;0.15;;;5.20;78.20;;;;;;4956654;28;20073;-75
2023/12/21 03:13:43;;;;;;;1.95;0.30;;;5.20;78.20;;;;;;4940761;28;20424;-75
2023/12/21 03:16:09;;;;;;;0.60;0.20;;;5.10;78.50;;;;;;4973981;28;20023;-75
2023/12/21 03:18:34;;;;;;;0.13;0.00;;;5.10;78.40;;;;;;4956735;28;20109;-75
2023/12/21 03:21:00;;;;;;;0.82;0.30;;;5.10;78.60;;;;;;4973998;28;20023;-82
2023/12/21 03:23:25;;;;;;;0.13;0.10;;;5.10;78.80;;;;;;4957344;28;20404;-80
2023/12/21 03:25:51;;;;;;;0.45;0.20;;;5.10;79.00;;;;;;4956712;28;20432;-80
2023/12/21 03:28:17;;;;;;;0.45;0.10;;;5.10;79.10;;;;;;4956760;28;20030;-81
2023/12/21 03:30:43;;;;;;;1.13;0.20;;;5.10;79.00;;;;;;4957158;28;20043;-79
2023/12/21 03:33:09;;;;;;;0.00;0.00;;;5.10;79.30;;;;;;4956988;28;20029;-79
2023/12/21 03:35:34;;;;;;;0.10;0.03;;;5.10;79.00;;;;;;4956915;28;20122;-79
2023/12/21 03:38:00;;;;;;;0.15;0.08;;;5.20;78.90;;;;;;4956712;28;20042;-78
2023/12/21 03:40:25;;;;;;;0.10;0.10;;;5.20;78.70;;;;;;4956877;28;20027;-78
2023/12/21 03:42:52;;;;;;;0.00;0.00;;;5.30;78.50;;;;;;4973876;28;20031;-75
2023/12/21 03:45:19;;;;;;;0.08;0.00;;;5.30;78.30;;;;;;4956532;28;20023;-80
2023/12/21 03:47:45;;;;;;;0.00;0.00;;;5.30;78.30;;;;;;4956683;28;20038;-77
2023/12/21 03:50:11;;;;;;;0.20;0.10;;;5.30;78.60;;;;;;4973845;28;20455;-80
2023/12/21 03:52:36;;;;;;;0.00;0.00;;;5.40;78.20;;;;;;4956564;28;20063;-79
2023/12/21 03:55:02;;;;;;;0.10;0.10;;;5.40;78.40;;;;;;4973864;28;20023;-80
2023/12/21 03:57:27;;;;;;;0.00;0.00;;;5.40;78.50;;;;;;4973768;28;20034;-79
2023/12/21 03:59:53;;;;;;;0.30;0.00;;;5.40;78.40;;;;;;4975778;28;20105;-75
2023/12/21 04:02:18;;;;;;;0.13;0.10;;;5.40;78.30;;;;;;4977754;28;20376;-82
2023/12/21 04:04:44;;;;;;;0.08;0.00;;;5.50;78.50;;;;;;4960006;28;20031;-82
2023/12/21 04:07:10;;;;;;;0.13;0.00;;;5.50;78.30;;;;;;4977427;28;20023;-78
2023/12/21 04:09:35;;;;;;;0.03;0.03;;;5.50;78.20;;;;;;4977987;28;20058;-84
2023/12/21 04:12:01;;;;;;;0.03;0.03;;;5.60;79.30;;;;;;4977726;28;20027;-80
2023/12/21 04:14:26;;;;;;;0.00;0.00;;;5.50;78.40;;;;;;4978469;28;20030;-81
2023/12/21 04:16:52;;;;;;;0.05;0.05;;;5.60;78.30;;;;;;4968392;28;20460;-75
2023/12/21 04:19:18;;;;;;;0.08;0.08;;;5.60;77.60;;;;;;4988803;28;20050;-77
2023/12/21 04:21:44;;;;;;;0.32;0.10;;;5.70;77.80;;;;;;4989535;28;20019;-79
2023/12/21 04:24:10;;;;;;;0.10;0.10;;;5.70;77.50;;;;;;4979302;28;20595;-79
2023/12/21 04:26:35;;;;;;;0.10;0.10;;;5.70;77.30;;;;;;4978225;28;20023;-84
2023/12/21 04:29:01;;;;;;;0.10;0.08;;;5.70;77.40;;;;;;4959689;28;20062;-84
2023/12/21 04:31:26;;;;;;;0.10;0.10;;;5.70;78.00;;;;;;4977140;28;20035;-83
2023/12/21 04:33:52;;;;;;;0.00;0.00;;;5.60;78.20;;;;;;4991498;28;20038;-85
2023/12/21 04:36:19;;;;;;;0.10;0.10;;;5.60;78.70;;;;;;4977557;28;20090;-83
2023/12/21 04:38:44;;;;;;;0.10;0.10;;;5.60;78.50;;;;;;4977289;28;20046;-86
2023/12/21 04:41:10;;;;;;;0.15;0.10;;;5.60;78.90;;;;;;4960410;28;20351;-85
2023/12/21 04:43:36;;;;;;;0.85;0.10;;;5.60;78.80;;;;;;4977637;28;20505;-83
2023/12/21 04:46:04;;;;;;;0.13;0.10;;;5.60;79.30;;;;;;4959129;28;20030;-82
2023/12/21 04:48:29;;;;;;;0.10;0.10;;;5.60;79.80;;;;;;4976231;28;20066;-81
2023/12/21 04:50:55;;;;;;;0.10;0.10;;;5.60;79.90;;;;;;4979988;28;20375;-79
2023/12/21 04:53:21;;;;;;;1.33;0.40;;;5.50;80.10;;;;;;4993184;28;20023;-83
2023/12/21 04:55:46;;;;;;;0.60;0.10;;;5.40;80.10;;;;;;4977571;28;20011;-84
2023/12/21 04:58:12;;;;;;;0.22;0.10;;;5.40;79.90;;;;;;4980536;28;20113;-85
2023/12/21 05:00:40;;;;;;;0.75;0.10;;;5.40;80.40;;;;;;4979269;28;20097;-82
2023/12/21 05:03:06;;;;;;;0.10;0.10;;;5.50;79.90;;;;;;4959642;28;20030;-83
2023/12/21 05:05:31;;;;;;;0.10;0.10;;;5.50;79.60;;;;;;4959460;28;20031;-80
2023/12/21 05:07:57;;;;;;;0.00;0.00;;;5.50;79.50;;;;;;4959139;28;20418;-81
2023/12/21 05:10:22;;;;;;;0.10;0.00;;;5.50;79.70;;;;;;4958748;28;20686;-81
2023/12/21 05:12:49;;;;;;;0.00;0.00;;;5.50;79.90;;;;;;4961962;28;20341;-83
2023/12/21 05:15:14;;;;;;;0.10;0.10;;;5.50;80.80;;;;;;4958460;28;20502;-80
2023/12/21 05:17:40;;;;;;;0.20;0.10;;;5.50;81.10;;;;;;4959220;28;20031;-84
2023/12/21 05:20:08;;;;;;;0.10;0.10;;;5.50;81.20;;;;;;4961273;28;20023;-82
2023/12/21 05:22:34;;;;;;;0.20;0.20;;;5.50;81.20;;;;;;4960658;28;20039;-83
2023/12/21 05:24:59;;;;;;;0.45;0.20;;;5.40;81.70;;;;;;4960352;28;20038;-83
2023/12/21 05:27:26;;;;;;;0.10;0.10;;;5.40;82.60;;;;;;4980287;28;20117;-84
2023/12/21 05:29:51;;;;;;;1.02;0.10;;;5.40;82.70;;;;;;4958932;28;20058;-85
2023/12/21 05:32:17;;;;;;;0.30;0.30;;;5.30;83.60;;;;;;4959076;28;20053;-85
2023/12/21 05:34:42;;;;;;;0.10;0.10;;;5.30;83.00;;;;;;4960182;28;20037;-87
2023/12/21 05:37:08;;;;;;;0.25;0.20;;;5.30;82.90;;;;;;4976194;28;20030;-83
2023/12/21 05:39:35;;;;;;;0.95;0.22;;;5.20;82.80;;;;;;4958264;28;20034;-85
2023/12/21 05:42:00;;;;;;;0.25;0.13;;;5.30;82.40;;;;;;4958535;28;20026;-82
2023/12/21 05:44:26;;;;;;;1.35;0.20;;;5.30;82.40;;;;;;4958223;28;20033;-81
2023/12/21 05:46:52;;;;;;;0.20;0.20;;;5.30;82.20;;;;;;4975419;28;20034;-85
2023/12/21 05:49:17;;;;;;;0.10;0.10;;;5.40;81.80;;;;;;4975311;28;20061;-83
2023/12/21 05:51:43;;;;;;;0.30;0.30;;;5.40;81.60;;;;;;4958312;28;20050;-80
2023/12/21 05:54:08;;;;;;;0.10;0.10;;;5.50;81.20;;;;;;4958406;28;20041;-82
2023/12/21 05:56:37;;;;;;;0.10;0.10;;;5.60;80.80;;;;;;4975663;28;20429;-85
2023/12/21 05:59:03;;;;;;;0.10;0.10;;;5.50;80.90;;;;;;4958012;28;20039;-83
2023/12/21 06:01:29;;;;;;;0.95;0.40;;;5.60;81.00;;;;;;4949786;29;20035;-82
2023/12/21 06:03:54;;;;;;;0.47;0.20;;;5.60;80.90;;;;;;4955517;28;20030;-81
2023/12/21 06:06:20;;;;;;;0.20;0.20;;;5.60;80.70;;;;;;4938862;29;20027;-82
2023/12/21 06:08:45;;;;;;;0.28;0.10;;;5.60;81.40;;;;;;4939006;29;20118;-82
2023/12/21 06:11:11;;;;;;;0.10;0.10;;;5.60;80.90;;;;;;4939559;29;20035;-83
2023/12/21 06:13:36;;;;;;;0.20;0.20;;;5.60;81.20;;;;;;4941278;29;20464;-79
2023/12/21 06:16:02;;;;;;;0.17;0.13;;;5.60;81.50;;;;;;4957107;29;20397;-83
2023/12/21 06:18:28;;;;;;;0.25;0.20;;;5.60;81.60;;;;;;4939421;29;20031;-83
2023/12/21 06:20:54;;;;;;;0.28;0.28;;;5.60;82.10;;;;;;4938562;28;20030;-83
2023/12/21 06:23:19;;;;;;;0.10;0.10;;;5.50;82.60;;;;;;4955070;28;20039;-82
2023/12/21 06:25:45;;;;;;;0.17;0.17;;;5.60;82.40;;;;;;4938341;29;20023;-84
2023/12/21 06:28:11;;;;;;;0.10;0.10;;;5.70;82.10;;;;;;4939005;29;20027;-83
2023/12/21 06:30:36;;;;;;;0.65;0.10;;;5.70;82.20;;;;;;4955226;29;20027;-80
2023/12/21 06:33:02;;;;;;;1.35;0.10;;;5.70;81.90;;;;;;4955209;28;20042;-81
2023/12/21 06:35:28;;;;;;;0.10;0.10;;;5.70;81.80;;;;;;4938482;29;20030;-83
2023/12/21 06:37:53;;;;;;;0.08;0.05;;;5.80;82.40;;;;;;4938187;29;20050;-84
2023/12/21 06:40:19;;;;;;;0.30;0.30;;;5.80;82.20;;;;;;4955707;28;20027;-81
2023/12/21 06:42:44;;;;;;;0.20;0.20;;;5.80;82.30;;;;;;4955222;29;20113;-84
2023/12/21 06:45:11;;;;;;;0.10;0.10;;;5.80;82.20;;;;;;4938346;29;20126;-83
2023/12/21 06:47:37;;;;;;;0.00;0.00;;;5.80;82.10;;;;;;4955526;29;20495;-83
2023/12/21 06:50:03;;;;;;;0.20;0.20;;;5.80;82.30;;;;;;4935087;29;20135;-83
2023/12/21 06:52:29;;;;;;;0.10;0.10;;;5.70;81.80;;;;;;4937394;29;20039;-83
2023/12/21 06:54:55;;;;;;;0.43;0.20;;;5.80;81.80;;;;;;4936487;29;20020;-76
2023/12/21 06:57:20;;;;;;;0.75;0.20;;;5.90;82.80;;;;;;4935378;29;20032;-77
2023/12/21 06:59:46;;;;;;;0.25;0.20;;;6.00;81.30;;;;;;4935656;29;20472;-74
2023/12/21 07:02:12;;;;;;;0.20;0.10;;;6.20;79.80;;;;;;4935806;29;20125;-77
2023/12/21 07:04:38;;;;;;;0.45;0.20;;;6.30;79.50;;;;;;4935973;29;20032;-78
2023/12/21 07:07:03;;;;;;;0.10;0.10;;;6.40;79.30;;;;;;4934131;29;20027;-81
2023/12/21 07:09:29;;;;;;;0.52;0.20;;;6.40;78.40;;;;;;4936252;29;20042;-78
2023/12/21 07:11:55;;;;;;;0.17;0.17;;;6.20;79.30;;;;;;4935720;29;20030;-79
2023/12/21 07:14:21;;;;;;;0.40;0.20;;;6.10;79.70;;;;;;4934762;29;20031;-80
2023/12/21 07:16:47;;;;;;;0.20;0.20;;;6.10;79.80;;;;;;4935282;29;20079;-83
2023/12/21 07:19:13;;;;;;;0.30;0.20;;;6.10;79.70;;;;;;4937618;29;20027;-82
2023/12/21 07:21:38;;;;;;;0.20;0.20;;;6.10;79.70;;;;;;4938406;29;20110;-79
2023/12/21 07:24:04;;;;;;;0.50;0.47;;;6.20;80.00;;;;;;4937403;29;20034;-81
2023/12/21 07:26:30;;;;;;;0.20;0.08;;;6.20;80.00;;;;;;4936583;29;20083;-82
2023/12/21 07:28:56;;;;;;;0.10;0.10;;;6.20;79.50;;;;;;4936092;29;20027;-80
2023/12/21 07:31:21;;;;;;;0.20;0.20;;;6.20;79.60;;;;;;4935951;29;20027;-80
2023/12/21 07:33:47;;;;;;;0.20;0.20;;;6.30;79.40;;;;;;4938973;29;20028;-79
2023/12/21 07:36:14;;;;;;;0.25;0.20;;;6.30;79.60;;;;;;4950702;29;20038;-79
2023/12/21 07:38:40;;;;;;;0.15;0.15;;;6.30;79.50;;;;;;4942465;29;20442;-81
2023/12/21 07:41:10;;;;;;;0.70;0.50;;;6.30;79.20;;;;;;4944062;29;20048;-83
2023/12/21 07:43:37;;;;;;;0.28;0.28;;;6.30;79.50;;;;;;4944289;29;20030;-80
2023/12/21 07:46:02;;;;;;;1.75;0.45;;;6.30;79.50;;;;;;4940100;29;20131;-82
2023/12/21 07:48:28;;;;;;;0.43;0.28;;;6.30;79.90;;;;;;4940251;29;20489;-79
2023/12/21 07:50:54;;;;;;;2.58;1.05;;;6.30;79.50;;;;;;4944917;29;20067;-80
2023/12/21 07:53:19;;;;;;;1.50;0.95;;;6.30;79.60;;;;;;4938948;29;20036;-81
2023/12/21 07:55:45;;;;;;;0.20;0.20;;;6.30;79.60;;;;;;4938114;29;20024;-78
2023/12/21 07:58:11;;;;;;;0.20;0.10;;;6.40;79.10;;;;;;4937781;29;20043;-81
2023/12/21 08:00:36;;;;;;;0.20;0.15;;;6.50;79.00;;;;;;4938147;29;20034;-80
2023/12/21 08:03:02;;;;;;;0.20;0.20;;;6.50;78.70;;;;;;4937671;29;20067;-80
2023/12/21 08:05:27;;;;;;;0.17;0.17;;;6.50;78.80;;;;;;4937462;29;20056;-78
2023/12/21 08:07:53;;;;;;;0.10;0.10;;;6.50;78.80;;;;;;4938438;29;20039;-81
2023/12/21 08:10:19;;;;;;;0.30;0.20;;;6.50;78.60;;;;;;4937376;29;20458;-81
2023/12/21 08:12:45;;;;;;;0.15;0.05;;;6.50;78.90;;;;;;4937265;29;20500;-81
2023/12/21 08:15:10;;;;;;;0.20;0.20;;;6.60;78.60;;;;;;4937127;29;20027;-77
2023/12/21 08:17:36;;;;;;;0.95;0.20;;;6.60;78.70;;;;;;4921055;29;20489;-76
2023/12/21 08:20:04;;;;;;;0.10;0.10;;;6.60;78.70;;;;;;4937029;29;20035;-81
2023/12/21 08:22:30;;;;;;;0.32;0.10;;;6.60;78.70;;;;;;4937857;29;20038;-78
2023/12/21 08:24:57;;;;;;;0.10;0.10;;;6.60;78.60;;;;;;4938812;29;20031;-82
2023/12/21 08:27:23;;;;;;;0.32;0.17;;;6.60;78.70;;;;;;4937996;29;20074;-81
2023/12/21 08:29:50;;;;;;;0.25;0.20;;;6.60;79.00;;;;;;4937865;29;20031;-80
2023/12/21 08:32:16;;;;;;;0.10;0.10;;;6.70;78.90;;;;;;4937163;29;20384;-80
2023/12/21 08:34:43;;;;;;;0.85;0.30;;;6.60;78.90;;;;;;4938132;29;20019;-78
2023/12/21 08:37:09;;;;;;;0.10;0.10;;;6.60;79.00;;;;;;4937024;29;20547;-81
2023/12/21 08:39:35;;;;;;;0.22;0.10;;;6.60;79.00;;;;;;4921359;29;20040;-75
2023/12/21 08:42:02;;;;;;;0.68;0.30;;;6.70;78.70;;;;;;4938102;29;20056;-81
2023/12/21 08:44:28;;;;;;;1.17;0.40;;;6.80;79.00;;;;;;4936850;29;20078;-80
2023/12/21 08:46:54;;;;;;;0.80;0.25;;;6.80;78.90;;;;;;4937113;29;20032;-77
2023/12/21 08:49:19;;;;;;;0.10;0.10;;;6.80;78.80;;;;;;4951680;29;20058;-78
2023/12/21 08:51:45;;;;;;;0.30;0.10;;;6.80;78.80;;;;;;4939645;29;20027;-79
2023/12/21 08:54:13;;;;;;;0.80;0.25;;;6.80;78.60;;;;;;4957584;28;20036;-80
2023/12/21 08:56:44;;;;;;;0.50;0.40;;;6.90;78.90;;;;;;4940254;29;20119;-80
2023/12/21 08:59:09;;;;;;;0.30;0.20;;;6.90;78.70;;;;;;4940185;29;20054;-80
2023/12/21 09:01:35;;;;;;;0.47;0.30;;;6.90;78.60;;;;;;4940043;29;20490;-79
2023/12/21 09:04:02;;;;;;;0.30;0.20;;;7.00;78.40;;;;;;4943058;29;20027;-81
2023/12/21 09:06:28;;;;;;;0.20;0.13;;;7.00;78.40;;;;;;4940569;29;20023;-80
2023/12/21 09:08:53;;;;;;;1.80;0.43;;;6.90;78.30;;;;;;4940076;29;20501;-79
2023/12/21 09:11:19;;;;;;;0.45;0.20;;;7.00;78.50;;;;;;4941265;29;20046;-79
2023/12/21 09:13:45;;;;;;;0.43;0.10;;;7.00;78.00;;;;;;4940448;29;20089;-79
2023/12/21 09:16:11;;;;;;;0.93;0.03;;;7.10;78.00;;;;;;4957313;28;20019;-79
2023/12/21 09:18:36;;;;;;;0.38;0.10;;;7.10;77.70;;;;;;4958363;29;20059;-79
2023/12/21 09:21:03;;;;;;;0.17;0.10;;;7.10;77.90;;;;;;4956473;28;20392;-80
2023/12/21 09:23:29;;;;;;;0.90;0.15;;;7.20;77.90;;;;;;4939752;29;20027;-80
2023/12/21 09:25:55;;;;;;;0.10;0.10;;;7.10;77.90;;;;;;4956692;28;20026;-79
2023/12/21 09:28:22;;;;;;;0.20;0.13;;;7.20;77.90;;;;;;4939414;29;20046;-79
2023/12/21 09:30:47;;;;;;;0.63;0.20;;;7.20;77.90;;;;;;4939712;29;20457;-79
2023/12/21 09:33:14;;;;;;;1.27;0.30;;;7.20;77.80;;;;;;4939308;29;20074;-79
2023/12/21 09:35:40;;;;;;;0.50;0.40;;;7.20;78.00;;;;;;4956538;28;20035;-80
2023/12/21 09:38:08;;;;;;;0.88;0.30;;;7.20;78.00;;;;;;4939256;29;20038;-80
2023/12/21 09:40:34;;;;;;;0.60;0.40;;;7.30;77.80;;;;;;4956473;28;20110;-80
2023/12/21 09:43:03;;;;;;;1.65;0.10;;;7.20;78.10;;;;;;4939061;29;20090;-79
2023/12/21 09:45:29;;;;;;;0.30;0.15;;;7.30;77.90;;;;;;4956232;29;20354;-80
2023/12/21 09:47:55;;;;;;;0.63;0.30;;;7.30;77.80;;;;;;4938899;29;20090;-79
2023/12/21 09:50:21;;;;;;;0.47;0.20;;;7.40;77.60;;;;;;4955969;29;20125;-80
2023/12/21 09:52:48;;;;;;;1.65;0.20;;;7.30;77.70;;;;;;4957972;28;20019;-80
2023/12/21 09:55:17;;;;;;;0.10;0.10;;;7.40;77.80;;;;;;4938582;29;20481;-80
2023/12/21 09:57:48;;;;;;;0.65;0.20;;;7.50;77.20;;;;;;4937951;29;20066;-76
2023/12/21 10:00:14;;;;;;;0.65;0.13;;;7.50;77.10;;;;;;4958969;29;20027;-81
2023/12/21 10:02:40;;;;;;;1.38;0.22;;;7.50;77.00;;;;;;4958290;29;20027;-83
2023/12/21 10:05:06;;;;;;;0.17;0.10;;;7.50;77.00;;;;;;4937165;29;20038;-79
2023/12/21 10:07:33;;;;;;;0.10;0.10;;;7.50;76.80;;;;;;4954273;29;20536;-79
2023/12/21 10:10:00;;;;;;;0.25;0.20;;;7.60;76.50;;;;;;4937789;29;20425;-77
2023/12/21 10:12:25;;;;;;;0.20;0.10;;;7.60;76.70;;;;;;4939458;29;20030;-80
2023/12/21 10:14:59;;;;;;;0.20;0.20;;;7.70;76.40;;;;;;4941516;29;20031;-80
2023/12/21 10:17:25;;;;;;;0.10;0.10;;;7.70;75.50;;;;;;4940851;29;20038;-80
2023/12/21 10:19:56;;;;;;;0.70;0.10;;;7.70;76.20;;;;;;4939801;29;20019;-83
2023/12/21 10:22:26;;;;;;;0.10;0.10;;;7.80;76.00;;;;;;4940396;29;20034;-85
2023/12/21 10:24:57;;;;;;;0.08;0.08;;;7.80;75.60;;;;;;4899349;23;1407036;-81
2023/12/21 10:27:23;;;;;;;0.80;0.17;;;7.80;75.50;;;;;;4938809;29;20074;-81
2023/12/21 10:29:53;;;;;;;0.40;0.22;;;7.90;75.60;;;;;;4939121;29;20031;-79
2023/12/21 10:32:19;;;;;;;0.73;0.17;;;7.90;75.60;;;;;;4937634;29;20114;-78
2023/12/21 10:34:46;;;;;;;0.50;0.30;;;7.90;75.50;;;;;;4937236;29;20058;-78
2023/12/21 10:37:12;;;;;;;0.10;0.10;;;8.00;75.20;;;;;;4921627;29;20120;-78
2023/12/21 10:39:44;;;;;;;0.73;0.22;;;8.00;75.50;;;;;;4937747;29;20104;-79
2023/12/21 10:42:16;;;;;;;1.95;0.20;;;7.90;75.60;;;;;;4954845;29;20054;-78
2023/12/21 10:44:50;;;;;;;0.20;0.20;;;7.90;75.90;;;;;;4937084;29;20027;-79
2023/12/21 10:47:16;;;;;;;0.10;0.10;;;7.90;76.30;;;;;;4935265;28;20067;-79
2023/12/21 10:49:45;;;;;;;0.10;0.10;;;7.90;76.40;;;;;;4974986;23;20074;-76
2023/12/21 10:52:24;;;;;;;0.50;0.25;;;7.90;76.30;;;;;;4949010;23;20136;-79
2023/12/21 10:57:41;;;;;;;0.10;0.10;;;8.00;76.00;;;;;;5048464;23;20103;-79
2023/12/21 11:00:12;;;;;;;0.25;0.10;;;8.00;75.70;;;;;;4937480;29;20086;-77
2023/12/21 11:02:42;;;;;;;0.50;0.30;;;8.00;75.70;;;;;;4937843;29;20027;-80
2023/12/21 11:05:10;;;;;;;0.10;0.10;;;8.00;75.60;;;;;;4955081;29;20031;-81
2023/12/21 11:07:36;;;;;;;0.52;0.40;;;8.00;75.50;;;;;;4954268;28;20030;-81
2023/12/21 11:10:02;;;;;;;0.20;0.20;;;8.00;75.10;;;;;;4941820;29;20024;-81
2023/12/21 11:12:28;;;;;;;0.10;0.10;;;8.00;75.20;;;;;;4941413;29;20078;-80
2023/12/21 11:14:54;;;;;;;0.20;0.20;;;8.00;75.20;;;;;;4972115;28;20031;-80
2023/12/21 11:17:20;;;;;;;0.30;0.10;;;8.00;75.40;;;;;;4978452;28;20042;-81
2023/12/21 11:19:47;;;;;;;9.55;5.95;;;8.00;75.40;;;;;;4961430;28;20065;-79
2023/12/21 11:22:13;;;;;;;6.78;3.80;;;8.00;75.30;;;;;;4961372;28;20502;-80
2023/12/21 11:24:39;;;;;;;0.80;0.13;;;8.10;74.90;;;;;;4978927;28;20085;-81
2023/12/21 11:27:07;;;;;;;0.22;0.22;;;8.00;74.50;;;;;;4978911;28;20023;-81
2023/12/21 11:29:33;;;;;;;0.28;0.28;;;8.10;74.80;;;;;;4944018;28;20027;-83
2023/12/21 11:32:05;;;;;;;0.30;0.30;;;8.10;75.00;;;;;;4977656;28;20027;-82
2023/12/21 11:34:35;;;;;;;0.32;0.20;;;8.10;75.00;;;;;;4978293;28;20031;-80
2023/12/21 11:37:22;;;;;;;0.22;0.20;;;8.10;74.50;;;;;;4978440;28;20031;-82
2023/12/21 11:39:51;;;;;;;0.20;0.20;;;8.10;74.80;;;;;;4978718;28;20196;-82
2023/12/21 11:42:20;;;;;;;0.30;0.20;;;8.20;74.50;;;;;;4960883;28;20027;-79
2023/12/21 11:44:53;;;;;;;1.13;0.20;;;8.20;74.10;;;;;;4960019;28;20122;-79
2023/12/21 11:47:19;;;;;;;0.10;0.10;;;8.20;74.00;;;;;;4960626;28;20022;-80
2023/12/21 11:49:45;;;;;;;0.20;0.20;;;8.20;74.10;;;;;;4977788;28;20022;-80
2023/12/21 11:52:11;;;;;;;0.45;0.20;;;8.20;74.00;;;;;;4959618;28;20035;-77
2023/12/21 11:54:36;;;;;;;0.10;0.10;;;8.20;74.00;;;;;;4977662;28;20027;-80
2023/12/21 11:57:12;;;;;;;0.20;0.20;;;8.20;74.10;;;;;;4960993;28;20153;-79
2023/12/21 11:59:38;;;;;;;0.10;0.10;;;8.20;73.70;;;;;;4976731;28;20485;-76
2023/12/21 12:02:06;;;;;;;0.30;0.30;;;8.20;73.80;;;;;;4976078;28;20095;-79
2023/12/21 12:04:32;;;;;;;0.10;0.10;;;8.20;74.20;;;;;;4959360;28;20126;-78
2023/12/21 12:06:58;;;;;;;0.03;0.03;;;8.20;74.10;;;;;;4976376;28;20465;-82
2023/12/21 12:09:23;;;;;;;0.50;0.20;;;8.20;74.30;;;;;;4960053;28;20023;-82
2023/12/21 12:11:51;;;;;;;0.15;0.15;;;8.20;74.50;;;;;;4959927;28;20460;-79
2023/12/21 12:14:18;;;;;;;0.30;0.10;;;8.20;74.40;;;;;;4959784;28;20066;-76
2023/12/21 12:16:43;;;;;;;0.10;0.10;;;8.20;74.10;;;;;;4976699;28;20542;-80
2023/12/21 12:19:11;;;;;;;0.40;0.10;;;8.30;74.20;;;;;;4959232;28;20039;-79
2023/12/21 12:21:36;;;;;;;0.10;0.10;;;8.30;74.40;;;;;;4959671;28;20025;-82
2023/12/21 12:24:03;;;;;;;0.20;0.20;;;8.30;74.10;;;;;;4980116;28;20027;-82
2023/12/21 12:26:29;;;;;;;1.65;0.10;;;8.30;74.40;;;;;;4963583;28;20057;-81
2023/12/21 12:28:55;;;;;;;0.10;0.10;;;8.20;74.80;;;;;;4969607;28;20030;-83
2023/12/21 12:31:20;;;;;;;1.00;0.20;;;8.20;74.90;;;;;;4960073;28;20376;-82
2023/12/21 12:33:47;;;;;;;0.60;0.13;;;8.20;75.10;;;;;;4978505;28;20106;-81
2023/12/21 12:36:16;;;;;;;1.38;0.03;;;8.20;75.90;;;;;;4978673;28;20115;-81
2023/12/21 12:38:45;;;;;;;0.10;0.10;;;8.10;76.90;;;;;;4960258;28;20035;-82
2023/12/21 12:41:16;;;;;;;0.55;0.20;;;8.10;77.50;;;;;;4977348;28;20027;-80
2023/12/21 12:43:42;;;;;;;0.13;0.13;;;8.00;78.20;;;;;;4960492;28;20121;-81
2023/12/21 12:46:07;;;;;;;0.38;0.17;;;7.90;79.40;;;;;;4976789;28;20050;-81
2023/12/21 12:48:33;;;;;;;0.10;0.10;;;7.80;80.00;;;;;;4960116;28;20172;-87
2023/12/21 12:50:59;;;;;;;0.52;0.10;;;7.70;81.00;;;;;;4960754;28;20097;-83
2023/12/21 12:53:25;;;;;;;0.13;0.10;;;7.80;80.20;;;;;;4962261;28;20121;-83
2023/12/21 12:55:55;;;;;;;1.05;0.20;;;7.80;80.20;;;;;;4962703;28;20046;-78